Hlavní strana
METAR-TAF:

METAR-TAF

Letiště :

Ohio State University Airport

Columbus, Ohio, Spojené státy americké

zeměpisná šířka: 40-04-41N, zeměpisná délka: 083-04-41W, výška: 275 m

Aktuální stav počasí

Zpráva byla vytvořena před 42 minutami, v 10:12 UTC
Západoseverozápadní vítr 12 kt s nárazy do 20 kt
Teplota 2°C
Vlhkost vzduchu 75%
Tlak 1011 hPa
Viditelnost: 16.1 km
Oblačno až skoro zataženo ve výšce 1700 ft

METAR: KOSU 101012Z AUTO 29012G20KT 10SM BKN017 02/M02 A2984 RMK AO2 T00171022

Čas: 05:54 (10:54 UTC)


TAF: chybějící

Stav a předpovědi počasí z více než 4 000 letišť (zprávy METAR a TAF).

Červené a žluté tečky na mapě představují dostupné meteorologické stanice.

Když kurzor umístíte na tečku, zobrazí se název stanice.

Pak kliknutím zobrazíte stav a předpověď počasí.

Chcete-li změnit mapu, kliknutím na zelené tlačítko se znaménkem +mapu přiblížíte, kliknutím na zelené tlačítko se znaménkem – mapu oddálíte a kliknutím na zelené šipky přejdete na sousední mapy.


METAR-TAF: